sensor_id;sensor_type;location;lat;lon;timestamp;pressure;altitude;pressure_sealevel;temperature;humidity
37238;BME280;23129;49.662;8.448;2022-10-17T00:01:11;101099.63;;;15.86;100.00
37238;BME280;23129;49.662;8.448;2022-10-17T00:03:41;101099.50;;;15.89;100.00
37238;BME280;23129;49.662;8.448;2022-10-17T00:06:13;101105.66;;;15.89;100.00
37238;BME280;23129;49.662;8.448;2022-10-17T00:08:43;101103.91;;;15.88;100.00
37238;BME280;23129;49.662;8.448;2022-10-17T00:11:16;101108.34;;;15.88;100.00
37238;BME280;23129;49.662;8.448;2022-10-17T00:13:46;101112.78;;;15.87;100.00
37238;BME280;23129;49.662;8.448;2022-10-17T00:16:18;101115.50;;;15.86;100.00
37238;BME280;23129;49.662;8.448;2022-10-17T00:18:49;101109.38;;;15.84;100.00
37238;BME280;23129;49.662;8.448;2022-10-17T00:21:20;101117.38;;;15.82;100.00
37238;BME280;23129;49.662;8.448;2022-10-17T00:23:49;101118.38;;;15.80;100.00
37238;BME280;23129;49.662;8.448;2022-10-17T00:26:18;101120.13;;;15.79;100.00
37238;BME280;23129;49.662;8.448;2022-10-17T00:28:47;101114.09;;;15.75;100.00
37238;BME280;23129;49.662;8.448;2022-10-17T00:31:19;101122.13;;;15.74;100.00
37238;BME280;23129;49.662;8.448;2022-10-17T00:33:49;101125.78;;;15.70;100.00
37238;BME280;23129;49.662;8.448;2022-10-17T00:36:21;101125.00;;;15.68;100.00
37238;BME280;23129;49.662;8.448;2022-10-17T00:38:53;101132.09;;;15.66;100.00
37238;BME280;23129;49.662;8.448;2022-10-17T00:41:25;101135.69;;;15.63;100.00
37238;BME280;23129;49.662;8.448;2022-10-17T00:43:57;101133.25;;;15.59;100.00
37238;BME280;23129;49.662;8.448;2022-10-17T00:46:28;101133.38;;;15.56;100.00
37238;BME280;23129;49.662;8.448;2022-10-17T00:49:05;101144.06;;;15.52;100.00
37238;BME280;23129;49.662;8.448;2022-10-17T00:51:40;101143.28;;;15.49;100.00
37238;BME280;23129;49.662;8.448;2022-10-17T00:54:10;101142.53;;;15.45;100.00
37238;BME280;23129;49.662;8.448;2022-10-17T00:56:41;101135.66;;;15.41;100.00
37238;BME280;23129;49.662;8.448;2022-10-17T00:59:11;101134.03;;;15.37;100.00
37238;BME280;23129;49.662;8.448;2022-10-17T01:01:41;101137.59;;;15.36;100.00
37238;BME280;23129;49.662;8.448;2022-10-17T01:04:14;101134.13;;;15.34;100.00
37238;BME280;23129;49.662;8.448;2022-10-17T01:06:44;101135.06;;;15.33;100.00
37238;BME280;23129;49.662;8.448;2022-10-17T01:09:12;101141.28;;;15.32;100.00
37238;BME280;23129;49.662;8.448;2022-10-17T01:11:49;101136.88;;;15.31;100.00
37238;BME280;23129;49.662;8.448;2022-10-17T01:14:27;101137.81;;;15.30;100.00
37238;BME280;23129;49.662;8.448;2022-10-17T01:17:04;101138.69;;;15.30;100.00
37238;BME280;23129;49.662;8.448;2022-10-17T01:20:06;101137.81;;;15.30;100.00
37238;BME280;23129;49.662;8.448;2022-10-17T01:22:48;101135.19;;;15.30;100.00
37238;BME280;23129;49.662;8.448;2022-10-17T01:25:30;101143.09;;;15.30;100.00
37238;BME280;23129;49.662;8.448;2022-10-17T01:28:22;101142.34;;;15.26;100.00
37238;BME280;23129;49.662;8.448;2022-10-17T01:31:05;101137.97;;;15.25;100.00
37238;BME280;23129;49.662;8.448;2022-10-17T01:33:48;101138.09;;;15.22;100.00
37238;BME280;23129;49.662;8.448;2022-10-17T01:36:32;101134.59;;;15.22;100.00
37238;BME280;23129;49.662;8.448;2022-10-17T01:39:13;101137.34;;;15.19;100.00
37238;BME280;23129;49.662;8.448;2022-10-17T01:41:49;101121.66;;;15.14;100.00
37238;BME280;23129;49.662;8.448;2022-10-17T01:44:24;101134.91;;;15.13;100.00
37238;BME280;23129;49.662;8.448;2022-10-17T01:46:59;101128.78;;;15.12;100.00
37238;BME280;23129;49.662;8.448;2022-10-17T01:49:31;101125.19;;;15.13;100.00
37238;BME280;23129;49.662;8.448;2022-10-17T01:52:06;101127.00;;;15.13;100.00
37238;BME280;23129;49.662;8.448;2022-10-17T01:54:39;101126.09;;;15.14;100.00
37238;BME280;23129;49.662;8.448;2022-10-17T01:57:16;101119.06;;;15.13;100.00
37238;BME280;23129;49.662;8.448;2022-10-17T01:59:47;101115.63;;;15.11;100.00
37238;BME280;23129;49.662;8.448;2022-10-17T02:02:19;101118.19;;;15.12;100.00
37238;BME280;23129;49.662;8.448;2022-10-17T02:04:50;101124.34;;;15.13;100.00
37238;BME280;23129;49.662;8.448;2022-10-17T02:07:19;101120.91;;;15.11;100.00
37238;BME280;23129;49.662;8.448;2022-10-17T02:09:47;101120.91;;;15.11;100.00
37238;BME280;23129;49.662;8.448;2022-10-17T02:12:40;101110.50;;;15.06;100.00
37238;BME280;23129;49.662;8.448;2022-10-17T02:15:52;101119.38;;;15.03;100.00
37238;BME280;23129;49.662;8.448;2022-10-17T02:21:34;101117.91;;;14.96;100.00
37238;BME280;23129;49.662;8.448;2022-10-17T02:24:16;101113.63;;;14.92;100.00
37238;BME280;23129;49.662;8.448;2022-10-17T02:26:52;101114.53;;;14.91;100.00
37238;BME280;23129;49.662;8.448;2022-10-17T02:29:28;101114.66;;;14.88;100.00
37238;BME280;23129;49.662;8.448;2022-10-17T02:32:01;101116.47;;;14.86;100.00
37238;BME280;23129;49.662;8.448;2022-10-17T02:34:36;101120.97;;;14.84;100.00
37238;BME280;23129;49.662;8.448;2022-10-17T02:37:08;101120.97;;;14.84;100.00
37238;BME280;23129;49.662;8.448;2022-10-17T02:39:39;101125.31;;;14.85;100.00
37238;BME280;23129;49.662;8.448;2022-10-17T02:42:12;101116.56;;;14.83;100.00
37238;BME280;23129;49.662;8.448;2022-10-17T02:44:43;101123.59;;;14.84;100.00
37238;BME280;23129;49.662;8.448;2022-10-17T02:47:19;101127.91;;;14.87;100.00
37238;BME280;23129;49.662;8.448;2022-10-17T02:49:53;101124.28;;;14.89;100.00
37238;BME280;23129;49.662;8.448;2022-10-17T02:52:27;101128.56;;;14.93;100.00
37238;BME280;23129;49.662;8.448;2022-10-17T02:55:02;101122.25;;;14.97;100.00
37238;BME280;23129;49.662;8.448;2022-10-17T02:57:36;101129.97;;;15.03;100.00
37238;BME280;23129;49.662;8.448;2022-10-17T03:00:10;101129.75;;;15.10;100.00
37238;BME280;23129;49.662;8.448;2022-10-17T03:02:42;101137.53;;;15.14;100.00
37238;BME280;23129;49.662;8.448;2022-10-17T03:05:16;101141.84;;;15.17;100.00
37238;BME280;23129;49.662;8.448;2022-10-17T03:07:44;101143.56;;;15.18;100.00
37238;BME280;23129;49.662;8.448;2022-10-17T03:10:13;101139.19;;;15.17;100.00
37238;BME280;23129;49.662;8.448;2022-10-17T03:12:42;101142.81;;;15.14;100.00
37238;BME280;23129;49.662;8.448;2022-10-17T03:15:12;101140.28;;;15.11;100.00
37238;BME280;23129;49.662;8.448;2022-10-17T03:17:42;101149.28;;;15.05;100.00
37238;BME280;23129;49.662;8.448;2022-10-17T03:20:14;101156.47;;;15.00;100.00
37238;BME280;23129;49.662;8.448;2022-10-17T03:22:43;101161.88;;;14.97;100.00
37238;BME280;23129;49.662;8.448;2022-10-17T03:25:11;101155.03;;;14.92;100.00
37238;BME280;23129;49.662;8.448;2022-10-17T03:27:39;101156.91;;;14.88;100.00
37238;BME280;23129;49.662;8.448;2022-10-17T03:30:09;101160.59;;;14.84;100.00
37238;BME280;23129;49.662;8.448;2022-10-17T03:32:38;101158.94;;;14.80;100.00
37238;BME280;23129;49.662;8.448;2022-10-17T03:35:06;101157.34;;;14.76;100.00
37238;BME280;23129;49.662;8.448;2022-10-17T03:37:44;101153.97;;;14.71;100.00
37238;BME280;23129;49.662;8.448;2022-10-17T03:40:14;101157.66;;;14.67;100.00
37238;BME280;23129;49.662;8.448;2022-10-17T03:42:43;101151.63;;;14.63;100.00
37238;BME280;23129;49.662;8.448;2022-10-17T03:45:12;101157.03;;;14.58;100.00
37238;BME280;23129;49.662;8.448;2022-10-17T03:47:41;101159.78;;;14.55;100.00
37238;BME280;23129;49.662;8.448;2022-10-17T03:50:09;101161.66;;;14.50;100.00
37238;BME280;23129;49.662;8.448;2022-10-17T03:52:39;101171.47;;;14.47;100.00
37238;BME280;23129;49.662;8.448;2022-10-17T03:55:09;101168.97;;;14.42;100.00
37238;BME280;23129;49.662;8.448;2022-10-17T03:57:38;101177.91;;;14.38;100.00
37238;BME280;23129;49.662;8.448;2022-10-17T04:00:12;101171.00;;;14.34;100.00
37238;BME280;23129;49.662;8.448;2022-10-17T04:02:41;101179.94;;;14.30;100.00
37238;BME280;23129;49.662;8.448;2022-10-17T04:05:17;101185.28;;;14.27;100.00
37238;BME280;23129;49.662;8.448;2022-10-17T04:07:46;101184.59;;;14.20;100.00
37238;BME280;23129;49.662;8.448;2022-10-17T04:10:18;101193.47;;;14.18;100.00
37238;BME280;23129;49.662;8.448;2022-10-17T04:12:47;101195.41;;;14.12;100.00
37238;BME280;23129;49.662;8.448;2022-10-17T04:15:17;101204.28;;;14.10;100.00
37238;BME280;23129;49.662;8.448;2022-10-17T04:17:46;101199.09;;;14.07;100.00
37238;BME280;23129;49.662;8.448;2022-10-17T04:20:15;101202.63;;;14.06;100.00
37238;BME280;23129;49.662;8.448;2022-10-17T04:22:44;101201.78;;;14.05;100.00
37238;BME280;23129;49.662;8.448;2022-10-17T04:25:13;101200.06;;;14.04;100.00
37238;BME280;23129;49.662;8.448;2022-10-17T04:27:45;101209.78;;;14.02;100.00
37238;BME280;23129;49.662;8.448;2022-10-17T04:30:15;101210.69;;;14.01;100.00
37238;BME280;23129;49.662;8.448;2022-10-17T04:32:45;101201.06;;;14.00;100.00
37238;BME280;23129;49.662;8.448;2022-10-17T04:35:19;101209.88;;;13.99;100.00
37238;BME280;23129;49.662;8.448;2022-10-17T04:37:54;101201.16;;;13.97;100.00
37238;BME280;23129;49.662;8.448;2022-10-17T04:40:22;101205.59;;;13.95;100.00
37238;BME280;23129;49.662;8.448;2022-10-17T04:42:53;101203.00;;;13.93;100.00
37238;BME280;23129;49.662;8.448;2022-10-17T04:45:29;101204.84;;;13.91;100.00
37238;BME280;23129;49.662;8.448;2022-10-17T04:48:01;101197.88;;;13.89;100.00
37238;BME280;23129;49.662;8.448;2022-10-17T04:50:29;101200.50;;;13.89;100.00
37238;BME280;23129;49.662;8.448;2022-10-17T04:53:27;101202.31;;;13.87;100.00
37238;BME280;23129;49.662;8.448;2022-10-17T04:55:57;101194.47;;;13.85;100.00
37238;BME280;23129;49.662;8.448;2022-10-17T04:58:29;101196.28;;;13.83;100.00
37238;BME280;23129;49.662;8.448;2022-10-17T05:00:57;101201.56;;;13.83;100.00
37238;BME280;23129;49.662;8.448;2022-10-17T05:03:28;101198.94;;;13.82;100.00
37238;BME280;23129;49.662;8.448;2022-10-17T05:05:57;101198.16;;;13.80;100.00
37238;BME280;23129;49.662;8.448;2022-10-17T05:08:26;101215.75;;;13.79;100.00
37238;BME280;23129;49.662;8.448;2022-10-17T05:10:54;101200.88;;;13.77;100.00
37238;BME280;23129;49.662;8.448;2022-10-17T05:13:23;101214.16;;;13.74;100.00
37238;BME280;23129;49.662;8.448;2022-10-17T05:15:52;101213.31;;;13.72;100.00
37238;BME280;23129;49.662;8.448;2022-10-17T05:18:21;101211.59;;;13.70;100.00
37238;BME280;23129;49.662;8.448;2022-10-17T05:20:49;101224.88;;;13.67;100.00
37238;BME280;23129;49.662;8.448;2022-10-17T05:23:18;101217.03;;;13.64;100.00
37238;BME280;23129;49.662;8.448;2022-10-17T05:25:46;101223.25;;;13.62;100.00
37238;BME280;23129;49.662;8.448;2022-10-17T05:28:15;101232.06;;;13.61;100.00
37238;BME280;23129;49.662;8.448;2022-10-17T05:30:43;101224.22;;;13.59;100.00
37238;BME280;23129;49.662;8.448;2022-10-17T05:33:13;101227.75;;;13.58;100.00
37238;BME280;23129;49.662;8.448;2022-10-17T05:35:41;101235.69;;;13.57;100.00
37238;BME280;23129;49.662;8.448;2022-10-17T05:38:10;101245.38;;;13.56;100.00
37238;BME280;23129;49.662;8.448;2022-10-17T05:40:41;101241.03;;;13.55;100.00
37238;BME280;23129;49.662;8.448;2022-10-17T05:43:10;101240.97;;;13.57;100.00
37238;BME280;23129;49.662;8.448;2022-10-17T05:45:39;101224.28;;;13.56;100.00
37238;BME280;23129;49.662;8.448;2022-10-17T05:48:14;101231.34;;;13.56;100.00
37238;BME280;23129;49.662;8.448;2022-10-17T05:50:43;101234.84;;;13.56;100.00
37238;BME280;23129;49.662;8.448;2022-10-17T05:53:15;101234.84;;;13.56;100.00
37238;BME280;23129;49.662;8.448;2022-10-17T05:55:55;101238.38;;;13.55;100.00
37238;BME280;23129;49.662;8.448;2022-10-17T05:58:24;101246.16;;;13.60;100.00
37238;BME280;23129;49.662;8.448;2022-10-17T06:01:32;101240.03;;;13.59;100.00
37238;BME280;23129;49.662;8.448;2022-10-17T06:04:02;101245.25;;;13.61;100.00
37238;BME280;23129;49.662;8.448;2022-10-17T06:06:31;101234.66;;;13.62;100.00
37238;BME280;23129;49.662;8.448;2022-10-17T06:09:00;101234.59;;;13.65;100.00
37238;BME280;23129;49.662;8.448;2022-10-17T06:11:32;101248.59;;;13.67;100.00
37238;BME280;23129;49.662;8.448;2022-10-17T06:14:01;101249.41;;;13.69;100.00
37238;BME280;23129;49.662;8.448;2022-10-17T06:16:29;101255.50;;;13.72;100.00
37238;BME280;23129;49.662;8.448;2022-10-17T06:18:58;101245.81;;;13.72;100.00
37238;BME280;23129;49.662;8.448;2022-10-17T06:21:28;101254.50;;;13.76;100.00
37238;BME280;23129;49.662;8.448;2022-10-17T06:24:12;101258.88;;;13.77;100.00
37238;BME280;23129;49.662;8.448;2022-10-17T06:26:42;101240.19;;;13.84;100.00
37238;BME280;23129;49.662;8.448;2022-10-17T06:29:12;101261.91;;;13.94;100.00
37238;BME280;23129;49.662;8.448;2022-10-17T06:31:49;101262.53;;;14.02;100.00
37238;BME280;23129;49.662;8.448;2022-10-17T06:34:18;101271.84;;;14.15;100.00
37238;BME280;23129;49.662;8.448;2022-10-17T06:36:48;101269.72;;;14.27;100.00
37238;BME280;23129;49.662;8.448;2022-10-17T06:39:18;101271.00;;;14.43;100.00
37238;BME280;23129;49.662;8.448;2022-10-17T06:42:03;101284.69;;;14.57;100.00
37238;BME280;23129;49.662;8.448;2022-10-17T06:44:57;101269.28;;;14.72;100.00
37238;BME280;23129;49.662;8.448;2022-10-17T06:47:42;101285.53;;;14.86;100.00
37238;BME280;23129;49.662;8.448;2022-10-17T06:50:26;101295.66;;;15.00;100.00
37238;BME280;23129;49.662;8.448;2022-10-17T06:53:09;101295.22;;;15.14;100.00
37238;BME280;23129;49.662;8.448;2022-10-17T06:56:13;101298.03;;;15.34;100.00
37238;BME280;23129;49.662;8.448;2022-10-17T06:58:58;101299.88;;;15.57;100.00
37238;BME280;23129;49.662;8.448;2022-10-17T07:01:33;101300.03;;;15.79;100.00
37238;BME280;23129;49.662;8.448;2022-10-17T07:04:04;101306.50;;;15.95;100.00
37238;BME280;23129;49.662;8.448;2022-10-17T07:06:33;101303.25;;;16.12;100.00
37238;BME280;23129;49.662;8.448;2022-10-17T07:09:09;101294.06;;;16.21;100.00
37238;BME280;23129;49.662;8.448;2022-10-17T07:11:37;101301.56;;;16.33;100.00
37238;BME280;23129;49.662;8.448;2022-10-17T07:14:06;101299.00;;;16.54;100.00
37238;BME280;23129;49.662;8.448;2022-10-17T07:16:35;101294.97;;;16.67;100.00
37238;BME280;23129;49.662;8.448;2022-10-17T07:19:29;101299.44;;;16.88;100.00
37238;BME280;23129;49.662;8.448;2022-10-17T07:21:58;101301.19;;;17.10;100.00
37238;BME280;23129;49.662;8.448;2022-10-17T07:24:28;101306.13;;;17.19;100.00
37238;BME280;23129;49.662;8.448;2022-10-17T07:27:04;101298.28;;;17.16;100.00
37238;BME280;23129;49.662;8.448;2022-10-17T07:29:33;101314.06;;;17.19;100.00
37238;BME280;23129;49.662;8.448;2022-10-17T07:32:08;101308.50;;;17.25;100.00
37238;BME280;23129;49.662;8.448;2022-10-17T07:34:36;101304.44;;;17.39;100.00
37238;BME280;23129;49.662;8.448;2022-10-17T07:37:06;101309.22;;;17.51;100.00
37238;BME280;23129;49.662;8.448;2022-10-17T07:39:39;101318.22;;;17.67;100.00
37238;BME280;23129;49.662;8.448;2022-10-17T07:42:09;101323.03;;;17.79;100.00
37238;BME280;23129;49.662;8.448;2022-10-17T07:44:38;101329.81;;;17.87;100.00
37238;BME280;23129;49.662;8.448;2022-10-17T07:47:06;101330.84;;;17.83;100.00
37238;BME280;23129;49.662;8.448;2022-10-17T07:49:36;101327.78;;;17.92;100.00
37238;BME280;23129;49.662;8.448;2022-10-17T07:52:09;101333.63;;;18.00;100.00
37238;BME280;23129;49.662;8.448;2022-10-17T07:54:39;101341.13;;;18.11;100.00
37238;BME280;23129;49.662;8.448;2022-10-17T07:57:08;101336.84;;;18.27;100.00
37238;BME280;23129;49.662;8.448;2022-10-17T07:59:37;101334.41;;;18.41;100.00
37238;BME280;23129;49.662;8.448;2022-10-17T08:02:07;101342.03;;;18.49;100.00
37238;BME280;23129;49.662;8.448;2022-10-17T08:04:36;101328.22;;;18.60;100.00
37238;BME280;23129;49.662;8.448;2022-10-17T08:07:05;101335.44;;;18.77;100.00
37238;BME280;23129;49.662;8.448;2022-10-17T08:09:50;101339.72;;;18.98;100.00
37238;BME280;23129;49.662;8.448;2022-10-17T08:12:19;101329.78;;;19.21;100.00
37238;BME280;23129;49.662;8.448;2022-10-17T08:14:47;101329.44;;;19.44;100.00
37238;BME280;23129;49.662;8.448;2022-10-17T08:17:15;101327.28;;;19.70;100.00
37238;BME280;23129;49.662;8.448;2022-10-17T08:19:43;101327.41;;;20.01;100.00
37238;BME280;23129;49.662;8.448;2022-10-17T08:22:12;101325.31;;;20.24;100.00
37238;BME280;23129;49.662;8.448;2022-10-17T08:24:40;101336.25;;;20.35;100.00
37238;BME280;23129;49.662;8.448;2022-10-17T08:27:11;101333.88;;;20.46;100.00
37238;BME280;23129;49.662;8.448;2022-10-17T08:29:40;101334.16;;;20.58;100.00
37238;BME280;23129;49.662;8.448;2022-10-17T08:32:08;101335.53;;;20.65;100.00
37238;BME280;23129;49.662;8.448;2022-10-17T08:34:37;101335.03;;;20.74;100.00
37238;BME280;23129;49.662;8.448;2022-10-17T08:37:05;101329.88;;;20.71;100.00
37238;BME280;23129;49.662;8.448;2022-10-17T08:39:34;101330.78;;;20.70;100.00
37238;BME280;23129;49.662;8.448;2022-10-17T08:45:08;101336.72;;;20.75;100.00
37238;BME280;23129;49.662;8.448;2022-10-17T08:47:44;101338.53;;;20.74;100.00
37238;BME280;23129;49.662;8.448;2022-10-17T08:50:20;101340.34;;;20.74;100.00
37238;BME280;23129;49.662;8.448;2022-10-17T08:52:53;101337.53;;;20.77;100.00
37238;BME280;23129;49.662;8.448;2022-10-17T08:55:31;101330.13;;;20.82;100.00
37238;BME280;23129;49.662;8.448;2022-10-17T08:58:01;101328.72;;;20.91;100.00
37238;BME280;23129;49.662;8.448;2022-10-17T09:00:30;101332.09;;;20.94;100.00
37238;BME280;23129;49.662;8.448;2022-10-17T09:03:13;101329.44;;;20.94;100.00
37238;BME280;23129;49.662;8.448;2022-10-17T09:05:51;101332.16;;;20.93;100.00
37238;BME280;23129;49.662;8.448;2022-10-17T09:08:28;101333.97;;;20.92;100.00
37238;BME280;23129;49.662;8.448;2022-10-17T09:11:03;101328.91;;;21.04;100.00
37238;BME280;23129;49.662;8.448;2022-10-17T09:13:55;101330.06;;;21.14;100.00
37238;BME280;23129;49.662;8.448;2022-10-17T09:16:46;101338.63;;;21.35;100.00
37238;BME280;23129;49.662;8.448;2022-10-17T09:19:22;101341.50;;;21.62;100.00
37238;BME280;23129;49.662;8.448;2022-10-17T09:21:56;101340.22;;;21.83;100.00
37238;BME280;23129;49.662;8.448;2022-10-17T09:24:37;101340.63;;;22.06;100.00
37238;BME280;23129;49.662;8.448;2022-10-17T09:27:17;101349.31;;;22.09;100.00
37238;BME280;23129;49.662;8.448;2022-10-17T09:30:14;101342.53;;;22.04;100.00
37238;BME280;23129;49.662;8.448;2022-10-17T09:33:10;101339.78;;;22.05;100.00
37238;BME280;23129;49.662;8.448;2022-10-17T09:36:00;101342.56;;;22.32;100.00
37238;BME280;23129;49.662;8.448;2022-10-17T09:38:37;101342.31;;;22.64;100.00
37238;BME280;23129;49.662;8.448;2022-10-17T09:41:15;101329.84;;;22.92;100.00
37238;BME280;23129;49.662;8.448;2022-10-17T09:44:18;101339.34;;;23.24;100.00
37238;BME280;23129;49.662;8.448;2022-10-17T09:47:13;101327.03;;;23.47;100.00
37238;BME280;23129;49.662;8.448;2022-10-17T09:49:44;101329.50;;;23.51;100.00
37238;BME280;23129;49.662;8.448;2022-10-17T09:52:15;101337.59;;;23.63;100.00
37238;BME280;23129;49.662;8.448;2022-10-17T09:54:46;101332.75;;;23.68;100.00
37238;BME280;23129;49.662;8.448;2022-10-17T09:57:17;101346.72;;;23.86;100.00
37238;BME280;23129;49.662;8.448;2022-10-17T09:59:56;101348.78;;;24.08;100.00
37238;BME280;23129;49.662;8.448;2022-10-17T10:02:28;101363.38;;;24.30;100.00
37238;BME280;23129;49.662;8.448;2022-10-17T10:05:02;101364.00;;;24.46;100.00
37238;BME280;23129;49.662;8.448;2022-10-17T10:07:36;101359.72;;;24.56;100.00
37238;BME280;23129;49.662;8.448;2022-10-17T10:13:18;101373.78;;;24.84;100.00
37238;BME280;23129;49.662;8.448;2022-10-17T10:15:49;101372.88;;;24.96;100.00
37238;BME280;23129;49.662;8.448;2022-10-17T10:18:34;101368.53;;;25.06;100.00
37238;BME280;23129;49.662;8.448;2022-10-17T10:21:10;101373.59;;;25.11;100.00
37238;BME280;23129;49.662;8.448;2022-10-17T10:23:41;101369.78;;;25.26;100.00
37238;BME280;23129;49.662;8.448;2022-10-17T10:26:21;101370.97;;;25.46;100.00
37238;BME280;23129;49.662;8.448;2022-10-17T10:28:59;101365.84;;;25.55;100.00
37238;BME280;23129;49.662;8.448;2022-10-17T10:31:33;101371.97;;;25.57;100.00
37238;BME280;23129;49.662;8.448;2022-10-17T10:34:15;101367.88;;;25.64;100.00
37238;BME280;23129;49.662;8.448;2022-10-17T10:36:54;101364.31;;;25.74;100.00
37238;BME280;23129;49.662;8.448;2022-10-17T10:39:42;101367.53;;;25.80;100.00
37238;BME280;23129;49.662;8.448;2022-10-17T10:42:24;101360.63;;;25.88;100.00
37238;BME280;23129;49.662;8.448;2022-10-17T10:44:57;101359.28;;;26.05;100.00
37238;BME280;23129;49.662;8.448;2022-10-17T10:47:29;101355.38;;;26.09;100.00
37238;BME280;23129;49.662;8.448;2022-10-17T10:50:25;101366.03;;;26.22;100.00
37238;BME280;23129;49.662;8.448;2022-10-17T10:53:14;101371.16;;;26.36;100.00
37238;BME280;23129;49.662;8.448;2022-10-17T10:55:52;101363.84;;;26.38;100.00
37238;BME280;23129;49.662;8.448;2022-10-17T10:58:39;101376.56;;;26.36;100.00
37238;BME280;23129;49.662;8.448;2022-10-17T11:01:17;101373.00;;;26.25;100.00
37238;BME280;23129;49.662;8.448;2022-10-17T11:04:00;101368.72;;;26.22;100.00
37238;BME280;23129;49.662;8.448;2022-10-17T11:06:36;101377.41;;;26.37;100.00
37238;BME280;23129;49.662;8.448;2022-10-17T11:09:18;101371.66;;;26.53;100.00
37238;BME280;23129;49.662;8.448;2022-10-17T11:11:57;101363.94;;;26.71;99.83
37238;BME280;23129;49.662;8.448;2022-10-17T11:14:37;101368.94;;;26.86;100.00
37238;BME280;23129;49.662;8.448;2022-10-17T11:17:14;101361.31;;;26.92;99.72
37238;BME280;23129;49.662;8.448;2022-10-17T11:19:49;101372.09;;;26.92;100.00
37238;BME280;23129;49.662;8.448;2022-10-17T11:22:25;101363.06;;;26.93;100.00
37238;BME280;23129;49.662;8.448;2022-10-17T11:24:59;101363.50;;;26.98;98.08
37238;BME280;23129;49.662;8.448;2022-10-17T11:27:30;101378.72;;;26.99;97.65
37238;BME280;23129;49.662;8.448;2022-10-17T11:29:59;101372.69;;;27.06;98.29
37238;BME280;23129;49.662;8.448;2022-10-17T11:32:33;101387.75;;;27.20;95.89
37238;BME280;23129;49.662;8.448;2022-10-17T11:35:07;101380.03;;;27.16;95.86
37238;BME280;23129;49.662;8.448;2022-10-17T11:37:46;101381.63;;;27.18;95.75
37238;BME280;23129;49.662;8.448;2022-10-17T11:40:21;101380.72;;;27.29;98.41
37238;BME280;23129;49.662;8.448;2022-10-17T11:42:59;101391.31;;;27.42;98.13
37238;BME280;23129;49.662;8.448;2022-10-17T11:45:40;101378.34;;;27.47;98.72
37238;BME280;23129;49.662;8.448;2022-10-17T11:48:16;101373.59;;;27.60;98.00
37238;BME280;23129;49.662;8.448;2022-10-17T11:50:53;101374.75;;;27.79;97.63
37238;BME280;23129;49.662;8.448;2022-10-17T11:53:53;101373.84;;;27.89;98.40
37238;BME280;23129;49.662;8.448;2022-10-17T11:56:33;101379.16;;;28.01;97.51
37238;BME280;23129;49.662;8.448;2022-10-17T11:59:43;101382.16;;;28.07;100.00
37238;BME280;23129;49.662;8.448;2022-10-17T12:02:22;101386.56;;;28.08;96.89
37238;BME280;23129;49.662;8.448;2022-10-17T12:04:59;101393.22;;;28.04;94.75
37238;BME280;23129;49.662;8.448;2022-10-17T12:07:39;101389.53;;;28.05;96.87
37238;BME280;23129;49.662;8.448;2022-10-17T12:10:30;101378.47;;;28.08;96.47
37238;BME280;23129;49.662;8.448;2022-10-17T12:13:47;101387.22;;;28.21;97.46
37238;BME280;23129;49.662;8.448;2022-10-17T12:16:44;101381.28;;;28.28;97.13
37238;BME280;23129;49.662;8.448;2022-10-17T12:19:34;101374.88;;;28.29;100.00
37238;BME280;23129;49.662;8.448;2022-10-17T12:22:16;101381.72;;;28.33;96.44
37238;BME280;23129;49.662;8.448;2022-10-17T12:24:54;101377.84;;;28.47;96.88
37238;BME280;23129;49.662;8.448;2022-10-17T12:27:42;101368.53;;;28.60;97.25
37238;BME280;23129;49.662;8.448;2022-10-17T12:30:21;101368.91;;;28.56;91.44
37238;BME280;23129;49.662;8.448;2022-10-17T12:33:05;101372.31;;;28.48;93.78
37238;BME280;23129;49.662;8.448;2022-10-17T12:35:49;101376.72;;;28.49;90.97
37238;BME280;23129;49.662;8.448;2022-10-17T12:38:26;101380.16;;;28.51;91.72
37238;BME280;23129;49.662;8.448;2022-10-17T12:41:12;101385.84;;;28.58;93.42
37238;BME280;23129;49.662;8.448;2022-10-17T12:43:51;101370.13;;;28.73;93.72
37238;BME280;23129;49.662;8.448;2022-10-17T12:46:57;101367.59;;;28.81;95.99
37238;BME280;23129;49.662;8.448;2022-10-17T12:49:46;101372.25;;;28.79;95.62
37238;BME280;23129;49.662;8.448;2022-10-17T12:55:12;101369.84;;;28.95;92.73
37238;BME280;23129;49.662;8.448;2022-10-17T12:57:49;101363.19;;;28.99;92.98
37238;BME280;23129;49.662;8.448;2022-10-17T13:00:31;101367.78;;;29.08;95.47
37238;BME280;23129;49.662;8.448;2022-10-17T13:03:11;101358.69;;;29.09;93.63
37238;BME280;23129;49.662;8.448;2022-10-17T13:05:46;101356.41;;;29.05;90.88
37238;BME280;23129;49.662;8.448;2022-10-17T13:08:19;101367.34;;;29.03;91.21
37238;BME280;23129;49.662;8.448;2022-10-17T13:10:51;101364.38;;;29.06;90.37
37238;BME280;23129;49.662;8.448;2022-10-17T13:13:23;101365.78;;;29.10;91.79
37238;BME280;23129;49.662;8.448;2022-10-17T13:15:55;101372.47;;;29.16;90.29
37238;BME280;23129;49.662;8.448;2022-10-17T13:18:26;101372.63;;;29.15;90.83
37238;BME280;23129;49.662;8.448;2022-10-17T13:20:57;101371.47;;;29.07;88.33
37238;BME280;23129;49.662;8.448;2022-10-17T13:23:31;101382.56;;;29.04;90.35
37238;BME280;23129;49.662;8.448;2022-10-17T13:26:11;101380.31;;;29.09;91.43
37238;BME280;23129;49.662;8.448;2022-10-17T13:28:40;101379.75;;;29.16;91.91
37238;BME280;23129;49.662;8.448;2022-10-17T13:34:04;101385.78;;;28.98;90.41
37238;BME280;23129;49.662;8.448;2022-10-17T13:36:33;101389.63;;;28.96;90.62